Time;durP1;ratioP1;P1;durP2;ratioP2;P2;SDS_P1;SDS_P2;PMS_P1;PMS_P2;Temp;Humidity;BMP_temperature;BMP_pressure;BME280_temperature;BME280_humidity;BME280_pressure;Samples;Min_cycle;Max_cycle;Signal;HPM_P1;HPM_P2
2023/05/02 00:01:39;;;;;;;;;;;9.40;99.90;;;;;;5147286;27;20046;-73
2023/05/02 00:04:06;;;;;;;5.80;2.47;;;9.50;99.90;;;;;;5123810;27;19955;-73
2023/05/02 00:06:31;;;;;;;5.00;2.05;;;9.40;99.90;;;;;;5137963;27;20099;-73
2023/05/02 00:08:57;;;;;;;5.55;2.08;;;9.30;99.90;;;;;;5150179;27;20479;-74
2023/05/02 00:11:23;;;;;;;6.53;2.65;;;9.40;99.90;;;;;;5142350;27;20047;-73
2023/05/02 00:13:49;;;;;;;3.58;1.90;;;9.30;99.90;;;;;;5130294;27;20043;-73
2023/05/02 00:16:15;;;;;;;6.22;2.38;;;9.30;99.90;;;;;;5130285;27;20367;-73
2023/05/02 00:18:40;;;;;;;5.72;2.05;;;9.40;99.90;;;;;;5141957;27;20034;-73
2023/05/02 00:21:07;;;;;;;8.68;2.55;;;9.40;99.90;;;;;;5136159;27;20101;-70
2023/05/02 00:23:33;;;;;;;;;;;9.30;99.90;;;;;;5125900;27;20039;-70
2023/05/02 00:25:58;;;;;;;5.65;1.95;;;9.30;99.90;;;;;;5131136;27;19930;-70
2023/05/02 00:28:25;;;;;;;7.65;1.98;;;9.30;99.90;;;;;;5113009;28;20111;-72
2023/05/02 00:30:52;;;;;;;5.05;2.00;;;9.20;99.90;;;;;;5130210;27;20047;-72
2023/05/02 00:33:17;;;;;;;;;;;9.20;99.90;;;;;;5130474;27;20070;-73
2023/05/02 00:35:43;;;;;;;7.78;2.10;;;9.20;99.90;;;;;;5133320;27;19961;-73
2023/05/02 00:38:09;;;;;;;5.30;1.92;;;9.30;99.90;;;;;;5136934;27;20101;-73
2023/05/02 00:40:50;;;;;;;5.15;1.83;;;9.30;99.90;;;;;;5129807;27;20096;-73
2023/05/02 00:43:16;;;;;;;5.72;1.83;;;9.20;99.90;;;;;;5144135;27;20070;-73
2023/05/02 00:45:42;;;;;;;2.75;1.40;;;9.20;99.90;;;;;;5139537;27;20127;-73
2023/05/02 00:48:09;;;;;;;3.45;1.52;;;9.40;99.90;;;;;;5134072;27;20490;-74
2023/05/02 00:50:39;;;;;;;6.80;2.00;;;9.40;99.90;;;;;;5133551;27;20551;-73
2023/05/02 00:53:06;;;;;;;6.30;2.10;;;9.30;99.90;;;;;;5135241;27;21057;-74
2023/05/02 00:55:32;;;;;;;4.38;1.70;;;9.30;99.90;;;;;;5123148;27;20053;-73
2023/05/02 00:58:00;;;;;;;2.63;1.52;;;9.40;99.90;;;;;;5142846;27;20046;-73
2023/05/02 01:00:36;;;;;;;3.78;1.60;;;9.40;99.90;;;;;;5142500;27;20250;-73
2023/05/02 01:03:16;;;;;;;3.33;1.33;;;9.30;99.90;;;;;;5142590;27;20070;-73
2023/05/02 01:05:52;;;;;;;5.03;1.90;;;9.30;99.90;;;;;;5126651;27;20539;-74
2023/05/02 01:08:37;;;;;;;4.22;1.65;;;9.30;99.90;;;;;;5133643;27;20133;-73
2023/05/02 01:11:25;;;;;;;3.67;1.63;;;9.40;99.90;;;;;;5129118;27;20471;-73
2023/05/02 01:13:53;;;;;;;5.25;1.92;;;9.30;99.90;;;;;;5131716;27;20039;-74
2023/05/02 01:16:22;;;;;;;6.15;2.03;;;9.40;99.90;;;;;;5131634;27;20047;-72
2023/05/02 01:18:50;;;;;;;4.70;2.28;;;9.40;99.90;;;;;;5118984;27;20146;-72
2023/05/02 01:21:16;;;;;;;6.35;2.60;;;9.40;99.90;;;;;;5119477;27;20082;-73
2023/05/02 01:24:04;;;;;;;6.45;2.50;;;9.30;99.90;;;;;;5129410;27;20447;-73
2023/05/02 01:26:44;;;;;;;10.10;2.80;;;9.30;99.90;;;;;;5127179;27;20036;-73
2023/05/02 01:29:13;;;;;;;8.15;2.88;;;9.20;99.90;;;;;;5116642;27;20491;-73
2023/05/02 01:31:41;;;;;;;8.63;2.65;;;9.10;99.90;;;;;;5151018;27;20034;-73
2023/05/02 01:34:10;;;;;;;5.97;2.65;;;9.10;99.90;;;;;;5130683;27;20046;-72
2023/05/02 01:36:42;;;;;;;10.40;2.60;;;9.00;99.90;;;;;;5135728;27;20521;-72
2023/05/02 01:39:12;;;;;;;5.57;2.30;;;9.00;99.90;;;;;;5139004;27;20087;-73
2023/05/02 01:41:39;;;;;;;8.02;2.40;;;8.90;99.90;;;;;;5128591;27;20054;-72
2023/05/02 01:44:07;;;;;;;11.60;2.95;;;8.90;99.90;;;;;;5124891;27;20089;-72
2023/05/02 01:46:37;;;;;;;11.85;3.42;;;8.80;99.90;;;;;;5128788;27;20445;-72
2023/05/02 01:49:05;;;;;;;8.77;2.50;;;8.70;99.90;;;;;;5134487;27;20057;-72
2023/05/02 01:51:34;;;;;;;12.68;3.28;;;8.70;99.90;;;;;;5146324;27;20035;-72
2023/05/02 01:54:04;;;;;;;9.68;3.28;;;8.60;99.90;;;;;;5149651;27;20035;-72
2023/05/02 01:56:32;;;;;;;9.45;2.83;;;8.60;99.90;;;;;;5139830;27;20082;-72
2023/05/02 01:59:00;;;;;;;10.68;2.97;;;8.60;99.90;;;;;;5137821;27;20053;-72
2023/05/02 02:01:27;;;;;;;8.10;2.72;;;8.60;99.90;;;;;;5151561;27;20042;-72
2023/05/02 02:03:59;;;;;;;17.20;3.10;;;8.70;99.90;;;;;;5135934;27;20074;-72
2023/05/02 02:06:26;;;;;;;9.80;2.60;;;8.60;99.90;;;;;;5137451;27;20113;-72
2023/05/02 02:08:52;;;;;;;12.07;2.85;;;8.60;99.90;;;;;;5149552;27;20058;-72
2023/05/02 02:11:35;;;;;;;15.13;3.45;;;8.50;99.90;;;;;;5130091;27;20043;-72
2023/05/02 02:14:06;;;;;;;17.17;3.97;;;8.50;99.90;;;;;;5114953;27;20061;-72
2023/05/02 02:16:36;;;;;;;14.23;3.17;;;8.40;99.90;;;;;;5139244;27;20466;-71
2023/05/02 02:19:07;;;;;;;15.13;3.90;;;8.40;99.90;;;;;;5131244;27;20490;-71
2023/05/02 02:21:35;;;;;;;16.65;3.63;;;8.40;99.90;;;;;;5137403;27;20078;-71
2023/05/02 02:24:03;;;;;;;12.98;3.67;;;8.40;99.90;;;;;;5136100;27;20439;-72
2023/05/02 02:26:28;;;;;;;11.45;3.72;;;8.40;99.90;;;;;;5139943;27;20054;-73
2023/05/02 02:28:55;;;;;;;12.77;3.67;;;8.30;99.90;;;;;;5143716;27;20039;-72
2023/05/02 02:31:21;;;;;;;13.02;3.13;;;8.30;99.90;;;;;;5141245;27;20039;-72
2023/05/02 02:33:47;;;;;;;12.57;3.25;;;8.30;99.90;;;;;;5122594;27;20043;-73
2023/05/02 02:36:30;;;;;;;15.50;3.63;;;8.30;99.90;;;;;;5122710;27;20047;-71
2023/05/02 02:39:19;;;;;;;11.07;3.92;;;8.20;99.90;;;;;;5129180;27;20063;-73
2023/05/02 02:42:00;;;;;;;16.55;3.78;;;8.20;99.90;;;;;;5127422;27;20118;-72
2023/05/02 02:44:31;;;;;;;13.75;3.92;;;8.10;99.90;;;;;;5119624;27;20067;-72
2023/05/02 02:47:09;;;;;;;9.93;2.80;;;8.10;99.90;;;;;;5120992;27;20498;-71
2023/05/02 02:49:49;;;;;;;17.00;3.70;;;8.10;99.90;;;;;;5134510;27;20631;-72
2023/05/02 02:52:45;;;;;;;13.88;3.53;;;8.00;99.90;;;;;;5137332;27;20139;-73
2023/05/02 02:55:29;;;;;;;16.45;3.65;;;8.00;99.90;;;;;;5126353;27;20049;-72
2023/05/02 02:57:58;;;;;;;15.05;3.60;;;8.00;99.90;;;;;;5144103;27;20066;-72
2023/05/02 03:00:27;;;;;;;11.00;3.13;;;7.90;99.90;;;;;;5129023;27;20043;-72
2023/05/02 03:02:53;;;;;;;14.20;3.67;;;7.90;99.90;;;;;;5127022;27;20085;-73
2023/05/02 03:05:21;;;;;;;8.73;2.80;;;7.80;99.90;;;;;;5116134;27;20126;-72
2023/05/02 03:07:47;;;;;;;11.40;2.90;;;7.80;99.90;;;;;;5131135;27;20047;-68
2023/05/02 03:10:12;;;;;;;8.60;2.75;;;7.70;99.90;;;;;;5130250;27;20379;-69
2023/05/02 03:12:42;;;;;;;9.55;2.55;;;7.70;99.90;;;;;;5128922;27;20035;-68
2023/05/02 03:15:30;;;;;;;9.77;2.38;;;7.60;99.90;;;;;;5123781;27;20046;-69
2023/05/02 03:17:55;;;;;;;10.32;2.38;;;7.60;99.90;;;;;;5125853;27;20043;-69
2023/05/02 03:20:22;;;;;;;10.32;2.55;;;7.50;99.90;;;;;;5103993;28;20096;-69
2023/05/02 03:22:47;;;;;;;;;;;7.50;99.90;;;;;;5119650;27;20039;-69
2023/05/02 03:25:13;;;;;;;9.55;2.25;;;7.50;99.90;;;;;;5129370;27;19925;-69
2023/05/02 03:27:39;;;;;;;7.70;2.28;;;7.50;99.90;;;;;;5121758;27;20073;-69
2023/05/02 03:30:05;;;;;;;10.80;2.40;;;7.50;99.90;;;;;;5113121;27;20376;-68
2023/05/02 03:32:31;;;;;;;10.75;2.33;;;7.60;99.90;;;;;;5127215;27;20134;-68
2023/05/02 03:34:58;;;;;;;12.13;2.53;;;7.60;99.90;;;;;;5129494;27;20233;-68
2023/05/02 03:37:23;;;;;;;;;;;7.60;99.90;;;;;;5127576;27;20478;-69
2023/05/02 03:39:49;;;;;;;9.05;2.33;;;7.50;99.90;;;;;;5128373;27;19917;-68
2023/05/02 03:42:15;;;;;;;7.78;2.10;;;7.50;99.90;;;;;;5131432;27;20058;-68
2023/05/02 03:44:40;;;;;;;9.07;2.15;;;7.50;99.90;;;;;;5103318;27;20043;-69
2023/05/02 03:47:06;;;;;;;9.68;2.33;;;7.50;99.90;;;;;;5125650;27;20071;-68
2023/05/02 03:49:35;;;;;;;10.98;2.33;;;7.50;99.90;;;;;;5124962;27;20451;-69
2023/05/02 03:52:01;;;;;;;8.23;2.10;;;7.40;99.90;;;;;;5138097;27;20046;-68
2023/05/02 03:54:30;;;;;;;8.70;1.75;;;7.40;99.90;;;;;;5118997;27;20131;-68
2023/05/02 03:56:56;;;;;;;5.13;1.63;;;7.40;99.40;;;;;;5111473;27;20116;-68
2023/05/02 03:59:22;;;;;;;7.88;1.90;;;7.40;88.60;;;;;;5142252;27;20066;-68
2023/05/02 04:01:49;;;;;;;4.55;1.50;;;7.40;60.40;;;;;;5131805;27;20043;-68
2023/05/02 04:04:15;;;;;;;5.72;2.05;;;7.40;64.30;;;;;;5133494;27;20473;-69
2023/05/02 04:06:41;;;;;;;7.93;1.83;;;7.40;43.70;;;;;;5130861;27;20138;-69
2023/05/02 04:09:07;;;;;;;6.97;2.40;;;7.40;63.10;;;;;;5130548;27;20568;-69
2023/05/02 04:11:33;;;;;;;7.80;2.08;;;7.30;1.00;;;;;;5134296;27;20043;-69
2023/05/02 04:13:58;;;;;;;5.65;1.55;;;7.30;17.00;;;;;;5137174;27;20050;-69
2023/05/02 04:16:24;;;;;;;6.53;1.70;;;7.30;1.00;;;;;;5125517;27;20067;-69
2023/05/02 04:18:50;;;;;;;5.28;1.52;;;7.30;1.00;;;;;;5130417;27;20039;-69
2023/05/02 04:21:16;;;;;;;4.00;1.48;;;7.30;1.00;;;;;;5121560;27;20035;-69
2023/05/02 04:23:41;;;;;;;4.35;1.70;;;7.30;1.00;;;;;;5138467;27;20099;-69
2023/05/02 04:26:07;;;;;;;4.38;1.70;;;7.30;1.00;;;;;;5116435;27;20047;-69
2023/05/02 04:28:34;;;;;;;7.85;1.73;;;7.30;1.00;;;;;;5125582;27;20407;-69
2023/05/02 04:31:00;;;;;;;4.07;1.60;;;7.20;1.00;;;;;;5123012;27;20187;-70
2023/05/02 04:33:26;;;;;;;4.72;1.40;;;7.20;1.00;;;;;;5133568;27;20557;-70
2023/05/02 04:35:51;;;;;;;4.05;1.40;;;7.20;1.00;;;;;;5115337;27;20039;-70
2023/05/02 04:38:17;;;;;;;4.38;1.50;;;7.20;1.00;;;;;;5117680;27;20151;-70
2023/05/02 04:40:43;;;;;;;7.72;2.03;;;7.20;99.90;;;;;;5136063;27;20046;-70
2023/05/02 04:43:09;;;;;;;4.25;2.03;;;7.20;99.90;;;;;;5114603;27;20039;-70
2023/05/02 04:45:38;;;;;;;6.47;2.13;;;7.20;99.90;;;;;;5131857;27;20085;-70
2023/05/02 04:48:04;;;;;;;8.38;2.25;;;7.20;99.90;;;;;;5132643;27;20367;-69
2023/05/02 04:50:31;;;;;;;5.22;1.73;;;7.20;99.90;;;;;;5121797;27;20119;-72
2023/05/02 04:52:57;;;;;;;7.45;1.70;;;7.20;99.90;;;;;;5129541;27;20107;-70
2023/05/02 04:55:22;;;;;;;4.82;1.65;;;7.20;99.90;;;;;;5132905;27;20039;-69
2023/05/02 04:57:48;;;;;;;5.85;1.67;;;7.20;99.90;;;;;;5129430;27;20050;-69
2023/05/02 05:00:14;;;;;;;7.65;2.13;;;7.20;1.00;;;;;;5130738;27;20082;-69
2023/05/02 05:02:40;;;;;;;5.38;1.90;;;7.20;1.00;;;;;;5136022;27;20035;-69
2023/05/02 05:05:06;;;;;;;9.30;2.08;;;7.20;1.00;;;;;;5120172;27;20045;-69
2023/05/02 05:07:32;;;;;;;7.40;2.15;;;7.20;1.00;;;;;;5149817;27;20047;-69
2023/05/02 05:09:57;;;;;;;11.10;2.40;;;7.20;1.00;;;;;;5110902;28;20161;-69
2023/05/02 05:12:23;;;;;;;6.22;2.03;;;7.30;1.00;;;;;;5093433;28;20138;-69
2023/05/02 05:14:49;;;;;;;9.10;1.98;;;7.30;1.00;;;;;;5114705;27;20115;-69
2023/05/02 05:17:15;;;;;;;6.70;1.90;;;7.30;1.00;;;;;;5111626;28;20113;-69
2023/05/02 05:19:41;;;;;;;5.07;2.00;;;7.30;1.00;;;;;;5125124;27;20050;-69
2023/05/02 05:22:07;;;;;;;8.18;2.10;;;7.40;1.00;;;;;;5124791;27;20130;-69
2023/05/02 05:24:33;;;;;;;6.30;2.10;;;7.30;1.00;;;;;;5123740;27;20043;-69
2023/05/02 05:26:59;;;;;;;9.10;2.47;;;7.30;1.00;;;;;;5119891;28;20058;-69
2023/05/02 05:29:24;;;;;;;8.32;2.10;;;7.40;1.00;;;;;;5127085;27;20130;-69
2023/05/02 05:31:50;;;;;;;5.95;1.83;;;7.40;1.00;;;;;;5122762;27;20088;-69
2023/05/02 05:34:16;;;;;;;9.35;2.60;;;7.30;1.00;;;;;;5106529;27;20046;-69
2023/05/02 05:36:42;;;;;;;6.30;2.10;;;7.40;1.00;;;;;;5120329;27;20036;-69
2023/05/02 05:39:09;;;;;;;7.35;1.90;;;7.30;1.00;;;;;;5124704;27;20054;-69
2023/05/02 05:41:34;;;;;;;5.38;1.80;;;7.30;1.00;;;;;;5126443;27;20046;-69
2023/05/02 05:44:00;;;;;;;6.72;1.92;;;7.40;1.00;;;;;;5112846;27;20028;-69
2023/05/02 05:46:26;;;;;;;5.95;1.92;;;7.40;1.00;;;;;;5128516;27;20043;-68
2023/05/02 05:48:51;;;;;;;6.80;2.30;;;7.40;1.00;;;;;;5114555;27;20051;-69
2023/05/02 05:51:17;;;;;;;5.88;2.45;;;7.40;1.00;;;;;;5130836;27;20050;-69
2023/05/02 05:53:43;;;;;;;5.28;2.03;;;7.40;1.00;;;;;;5120359;27;20439;-69
2023/05/02 05:56:10;;;;;;;7.35;2.00;;;7.40;1.00;;;;;;5130080;27;20474;-69
2023/05/02 05:58:36;;;;;;;6.95;2.20;;;7.40;1.00;;;;;;5114923;27;20047;-69
2023/05/02 06:01:02;;;;;;;;;;;7.50;1.00;;;;;;5124124;27;20086;-69
2023/05/02 06:03:28;;;;;;;4.43;1.80;;;7.50;1.00;;;;;;5116243;27;19924;-69
2023/05/02 06:05:53;;;;;;;8.20;2.22;;;7.60;1.00;;;;;;5111106;27;20075;-68
2023/05/02 06:08:20;;;;;;;5.82;1.90;;;7.50;99.90;;;;;;5094773;28;20043;-68
2023/05/02 06:10:46;;;;;;;7.63;2.30;;;7.60;99.90;;;;;;5111658;28;20123;-69
2023/05/02 06:13:12;;;;;;;6.45;2.03;;;7.50;99.90;;;;;;5111251;28;20067;-69
2023/05/02 06:15:37;;;;;;;5.40;2.33;;;7.50;99.90;;;;;;5110602;28;20090;-69
2023/05/02 06:18:03;;;;;;;7.13;2.28;;;7.50;99.90;;;;;;5095051;28;20108;-69
2023/05/02 06:20:29;;;;;;;4.97;1.80;;;7.60;99.90;;;;;;5094696;28;20617;-69
2023/05/02 06:22:55;;;;;;;6.32;2.00;;;7.60;99.90;;;;;;5111407;28;20050;-69
2023/05/02 06:25:20;;;;;;;4.95;1.83;;;7.60;99.90;;;;;;5124143;27;20035;-69
2023/05/02 06:27:46;;;;;;;6.63;2.10;;;7.60;99.90;;;;;;5132220;27;20455;-69
2023/05/02 06:30:12;;;;;;;7.13;2.05;;;7.70;99.90;;;;;;5097979;27;20104;-69
2023/05/02 06:32:38;;;;;;;7.43;2.50;;;7.70;99.90;;;;;;5131886;27;20039;-69
2023/05/02 06:35:04;;;;;;;6.97;2.28;;;7.60;99.90;;;;;;5133274;27;20035;-69
2023/05/02 06:37:36;;;;;;;7.65;2.78;;;7.60;99.90;;;;;;5131573;27;20047;-69
2023/05/02 06:40:02;;;;;;;7.88;2.28;;;7.60;99.90;;;;;;5113679;27;20059;-68
2023/05/02 06:42:28;;;;;;;7.80;2.15;;;7.70;99.90;;;;;;5114574;27;20043;-68
2023/05/02 06:44:55;;;;;;;8.50;2.38;;;7.60;99.90;;;;;;5131559;27;20531;-69
2023/05/02 06:47:23;;;;;;;6.15;2.15;;;7.60;99.90;;;;;;5131738;27;20039;-68
2023/05/02 06:49:52;;;;;;;7.60;2.30;;;7.60;99.90;;;;;;5131195;27;20058;-68
2023/05/02 06:52:18;;;;;;;6.22;2.00;;;7.60;99.90;;;;;;5133087;27;20689;-68
2023/05/02 06:54:44;;;;;;;5.53;2.00;;;7.70;99.90;;;;;;5131147;27;20128;-68
2023/05/02 06:57:09;;;;;;;6.03;1.83;;;7.70;99.90;;;;;;5131335;27;20405;-68
2023/05/02 06:59:35;;;;;;;7.43;2.30;;;7.80;99.90;;;;;;5131546;27;20043;-68
2023/05/02 07:02:01;;;;;;;8.07;2.30;;;7.80;99.90;;;;;;5131397;27;20363;-68
2023/05/02 07:04:27;;;;;;;6.72;2.17;;;7.90;99.90;;;;;;5131308;27;20072;-69
2023/05/02 07:06:53;;;;;;;4.97;1.70;;;7.90;99.90;;;;;;5114258;27;20043;-69
2023/05/02 07:09:18;;;;;;;8.63;2.53;;;8.00;99.90;;;;;;5131038;27;20482;-69
2023/05/02 07:11:44;;;;;;;5.55;1.70;;;8.10;99.90;;;;;;5114262;27;20031;-69
2023/05/02 07:14:10;;;;;;;3.35;1.50;;;8.10;99.90;;;;;;5131384;27;20367;-69
2023/05/02 07:16:35;;;;;;;4.53;1.63;;;8.10;99.90;;;;;;5131162;27;20074;-69
2023/05/02 07:19:03;;;;;;;4.13;1.50;;;8.20;99.90;;;;;;5131102;27;20062;-69
2023/05/02 07:21:29;;;;;;;6.25;2.00;;;8.20;99.90;;;;;;5113766;27;20047;-69
2023/05/02 07:23:56;;;;;;;7.68;2.58;;;8.20;99.90;;;;;;5130778;27;20054;-72
2023/05/02 07:26:22;;;;;;;4.10;2.10;;;8.10;94.20;;;;;;5131844;27;20053;-72
2023/05/02 07:28:48;;;;;;;6.07;2.10;;;8.10;82.90;;;;;;5114036;27;20122;-73
2023/05/02 07:31:13;;;;;;;7.53;2.08;;;8.00;82.90;;;;;;5132296;27;20526;-72
2023/05/02 07:33:39;;;;;;;8.23;2.55;;;8.10;99.90;;;;;;5130616;27;20043;-73
2023/05/02 07:36:05;;;;;;;7.20;2.20;;;8.10;99.90;;;;;;5130733;27;20118;-72
2023/05/02 07:38:31;;;;;;;4.60;1.60;;;8.20;99.90;;;;;;5130711;27;20082;-72
2023/05/02 07:40:58;;;;;;;5.40;2.00;;;8.30;99.90;;;;;;5113285;27;20512;-72
2023/05/02 07:43:23;;;;;;;6.82;1.70;;;8.40;99.90;;;;;;5130797;27;20486;-72
2023/05/02 07:45:49;;;;;;;9.68;2.10;;;8.50;99.90;;;;;;5130655;27;20089;-72
2023/05/02 07:48:15;;;;;;;4.43;1.65;;;8.50;99.90;;;;;;5130639;27;20547;-74
2023/05/02 07:50:40;;;;;;;3.65;1.42;;;8.70;99.90;;;;;;5130168;27;20054;-72
2023/05/02 07:53:06;;;;;;;5.10;1.55;;;8.80;97.90;;;;;;5113199;27;20051;-72
2023/05/02 07:55:32;;;;;;;4.95;1.52;;;9.00;99.90;;;;;;5130058;27;20051;-73
2023/05/02 07:57:59;;;;;;;5.18;1.30;;;9.00;80.40;;;;;;5130291;27;20118;-73
2023/05/02 08:00:25;;;;;;;4.70;1.40;;;9.10;99.90;;;;;;5130467;27;20109;-69
2023/05/02 08:02:50;;;;;;;5.07;1.40;;;8.90;99.90;;;;;;5130129;27;20043;-69
2023/05/02 08:05:17;;;;;;;3.53;1.33;;;8.90;99.90;;;;;;5130493;27;20043;-69
2023/05/02 08:07:42;;;;;;;4.10;1.38;;;8.90;99.90;;;;;;5131413;27;20086;-69
2023/05/02 08:10:09;;;;;;;5.70;1.48;;;8.90;99.90;;;;;;5130151;27;20089;-69
2023/05/02 08:12:39;;;;;;;4.95;1.50;;;8.80;99.90;;;;;;5130483;27;20372;-69
2023/05/02 08:15:07;;;;;;;3.85;1.38;;;8.70;99.90;;;;;;5130021;27;20491;-69
2023/05/02 08:17:33;;;;;;;5.93;1.50;;;8.70;99.90;;;;;;5130409;27;20118;-69
2023/05/02 08:19:59;;;;;;;3.72;1.20;;;8.60;99.90;;;;;;5130258;27;20549;-69
2023/05/02 08:22:24;;;;;;;3.90;1.08;;;8.70;99.90;;;;;;5130011;27;20406;-69
2023/05/02 08:24:50;;;;;;;3.88;1.38;;;8.90;99.90;;;;;;5129661;27;20092;-69
2023/05/02 08:27:16;;;;;;;3.60;1.08;;;9.20;99.90;;;;;;5129709;27;20054;-69
2023/05/02 08:29:41;;;;;;;4.55;1.17;;;9.20;49.90;;;;;;5130131;28;20059;-69
2023/05/02 08:32:07;;;;;;;2.80;0.82;;;9.50;30.90;;;;;;5112646;28;20038;-69
2023/05/02 08:34:33;;;;;;;3.03;0.90;;;9.80;74.30;;;;;;5129800;27;20039;-69
2023/05/02 08:36:58;;;;;;;3.30;1.30;;;9.80;36.30;;;;;;5129969;27;20054;-69
2023/05/02 08:39:24;;;;;;;3.50;1.10;;;9.70;1.00;;;;;;5130035;28;20390;-69
2023/05/02 08:41:50;;;;;;;3.65;1.10;;;9.80;1.00;;;;;;5130807;28;20486;-69
2023/05/02 08:44:16;;;;;;;1.88;1.05;;;10.00;6.20;;;;;;5129904;27;20039;-68
2023/05/02 08:46:42;;;;;;;;;;;10.00;1.00;;;;;;5130190;28;20039;-68
2023/05/02 08:49:10;;;;;;;3.53;1.00;;;10.10;1.00;;;;;;5129491;28;19919;-69
2023/05/02 08:51:37;;;;;;;3.63;1.00;;;10.00;1.00;;;;;;5129685;27;20450;-68
2023/05/02 08:54:06;;;;;;;2.13;0.90;;;10.20;1.00;;;;;;5129653;27;20538;-68
2023/05/02 08:56:32;;;;;;;3.42;0.90;;;10.70;1.00;;;;;;5129378;28;20538;-68
2023/05/02 08:58:57;;;;;;;2.63;1.00;;;11.30;1.00;;;;;;5095486;28;20043;-69
2023/05/02 09:01:27;;;;;;;3.38;0.93;;;11.00;1.00;;;;;;5129933;27;20043;-68
2023/05/02 09:03:54;;;;;;;5.07;1.30;;;10.70;1.00;;;;;;5132805;27;20043;-68
2023/05/02 09:06:21;;;;;;;4.90;1.10;;;10.30;1.00;;;;;;5116532;27;20058;-68
2023/05/02 09:08:51;;;;;;;2.72;0.90;;;10.10;1.00;;;;;;5116374;27;20046;-68
2023/05/02 09:11:17;;;;;;;6.80;1.45;;;10.00;1.00;;;;;;5133544;27;20077;-68
2023/05/02 09:13:47;;;;;;;4.07;1.00;;;9.90;1.00;;;;;;5133671;27;20446;-68
2023/05/02 09:16:18;;;;;;;4.38;1.00;;;9.60;1.00;;;;;;5133268;27;20427;-68
2023/05/02 09:18:52;;;;;;;3.28;1.08;;;9.60;1.00;;;;;;5117157;27;20058;-68
2023/05/02 09:21:20;;;;;;;2.63;1.00;;;9.70;20.40;;;;;;5133194;27;20047;-68
2023/05/02 09:23:54;;;;;;;2.75;0.88;;;9.70;45.60;;;;;;5116522;27;20062;-69
2023/05/02 09:26:31;;;;;;;2.97;1.00;;;9.50;64.90;;;;;;5132877;27;20155;-69
2023/05/02 09:28:59;;;;;;;2.67;0.77;;;9.40;99.90;;;;;;5133135;27;20546;-68
2023/05/02 09:31:32;;;;;;;2.03;0.82;;;9.40;98.20;;;;;;5133477;27;20058;-68
2023/05/02 09:34:10;;;;;;;3.95;0.98;;;9.40;91.80;;;;;;5133027;27;20074;-68
2023/05/02 09:36:50;;;;;;;2.10;0.82;;;9.50;96.50;;;;;;5116230;27;20065;-67
2023/05/02 09:39:18;;;;;;;2.40;0.88;;;9.80;99.90;;;;;;5133268;27;20207;-68
2023/05/02 09:41:48;;;;;;;1.90;0.80;;;10.00;72.80;;;;;;5132752;27;20589;-69
2023/05/02 09:44:17;;;;;;;1.83;0.80;;;10.30;54.90;;;;;;5132744;27;20054;-69
2023/05/02 09:46:50;;;;;;;2.97;0.90;;;10.50;19.80;;;;;;5132607;27;20055;-69
2023/05/02 09:49:20;;;;;;;2.45;0.80;;;10.70;1.00;;;;;;5132844;27;20345;-68
2023/05/02 09:51:47;;;;;;;2.58;0.80;;;10.50;1.00;;;;;;5132884;27;20079;-68
2023/05/02 09:54:13;;;;;;;2.60;0.85;;;10.40;1.00;;;;;;5132755;27;20146;-68
2023/05/02 09:56:55;;;;;;;3.50;0.80;;;10.30;3.40;;;;;;5115672;27;20070;-68
2023/05/02 09:59:21;;;;;;;3.78;0.80;;;10.10;3.60;;;;;;5115424;27;20087;-68
2023/05/02 10:02:03;;;;;;;3.13;0.80;;;9.90;1.00;;;;;;5132605;27;20498;-68
2023/05/02 10:04:31;;;;;;;3.97;0.80;;;9.70;1.00;;;;;;5132518;27;20079;-68
2023/05/02 10:06:58;;;;;;;1.90;0.80;;;9.70;1.00;;;;;;5115199;27;20046;-68
2023/05/02 10:09:25;;;;;;;1.45;0.50;;;9.90;1.00;;;;;;5132203;27;20050;-68
2023/05/02 10:11:52;;;;;;;2.15;0.60;;;10.00;1.00;;;;;;5132104;27;20035;-68
2023/05/02 10:14:21;;;;;;;2.55;0.90;;;10.40;1.00;;;;;;5133177;27;20045;-68
2023/05/02 10:17:00;;;;;;;2.42;0.80;;;10.60;1.00;;;;;;5114990;27;20482;-68
2023/05/02 10:19:37;;;;;;;2.20;0.80;;;10.50;1.00;;;;;;5132101;27;20483;-68
2023/05/02 10:22:03;;;;;;;5.05;0.90;;;10.40;1.00;;;;;;5131957;27;20047;-68
2023/05/02 10:24:31;;;;;;;2.47;0.98;;;10.30;1.00;;;;;;5132285;27;20047;-68
2023/05/02 10:26:58;;;;;;;2.60;0.82;;;10.40;1.00;;;;;;5131966;27;20066;-68
2023/05/02 10:29:28;;;;;;;3.92;0.85;;;10.40;1.00;;;;;;5114840;27;20039;-68
2023/05/02 10:31:55;;;;;;;3.00;1.10;;;10.20;1.00;;;;;;5132045;27;20050;-68
2023/05/02 10:34:22;;;;;;;3.55;0.90;;;9.80;1.00;;;;;;5131888;27;20043;-68
2023/05/02 10:36:47;;;;;;;3.50;0.90;;;10.00;7.70;;;;;;5131761;27;20039;-68
2023/05/02 10:39:13;;;;;;;2.17;0.80;;;10.40;34.40;;;;;;5131692;27;20046;-68
2023/05/02 10:41:41;;;;;;;3.25;0.80;;;10.50;43.50;;;;;;5131885;27;20144;-68
2023/05/02 10:44:07;;;;;;;3.58;0.95;;;10.50;48.80;;;;;;5131548;27;20127;-68
2023/05/02 10:46:36;;;;;;;4.32;1.02;;;9.90;94.60;;;;;;5131654;27;20043;-68
2023/05/02 10:49:09;;;;;;;6.13;1.20;;;9.70;99.90;;;;;;5131274;27;20505;-68
2023/05/02 10:51:37;;;;;;;3.60;1.08;;;9.50;99.90;;;;;;5131377;27;20051;-68
2023/05/02 10:54:18;;;;;;;3.15;0.90;;;9.40;99.90;;;;;;5131313;27;20490;-68
2023/05/02 10:57:03;;;;;;;5.28;1.00;;;9.50;99.90;;;;;;5131576;27;20163;-68
2023/05/02 10:59:39;;;;;;;2.13;1.02;;;9.70;99.90;;;;;;5131129;27;20050;-68
2023/05/02 11:02:29;;;;;;;3.20;1.05;;;9.70;99.90;;;;;;5131225;27;20047;-68
2023/05/02 11:05:03;;;;;;;3.22;0.90;;;9.80;99.90;;;;;;5130806;27;20084;-68
2023/05/02 11:07:31;;;;;;;1.77;0.73;;;10.20;99.90;;;;;;5130981;27;20118;-68
2023/05/02 11:10:15;;;;;;;4.28;1.13;;;10.90;99.90;;;;;;5131171;27;20065;-68
2023/05/02 11:12:55;;;;;;;3.25;0.90;;;10.80;87.60;;;;;;5130953;27;20050;-68
2023/05/02 11:15:27;;;;;;;2.38;0.75;;;10.50;49.10;;;;;;5130849;27;20043;-68
2023/05/02 11:18:19;;;;;;;2.85;0.80;;;10.60;39.20;;;;;;5130943;27;20549;-69
2023/05/02 11:20:45;;;;;;;3.22;0.70;;;11.10;1.00;;;;;;5130902;27;20406;-68
2023/05/02 11:23:14;;;;;;;2.42;0.80;;;11.10;1.00;;;;;;5130754;27;20047;-68
2023/05/02 11:25:49;;;;;;;2.80;0.80;;;10.70;1.00;;;;;;5130059;27;20043;-68
2023/05/02 11:28:36;;;;;;;5.20;0.75;;;10.40;56.70;;;;;;5130641;27;20062;-68
2023/05/02 11:31:06;;;;;;;2.97;0.80;;;10.40;41.70;;;;;;5130624;27;20039;-69
2023/05/02 11:33:33;;;;;;;2.67;0.80;;;10.30;56.40;;;;;;5130592;27;20081;-69
2023/05/02 11:35:59;;;;;;;3.65;0.90;;;10.30;26.70;;;;;;5130613;27;20051;-69
2023/05/02 11:38:26;;;;;;;;;;;10.40;67.40;;;;;;5130970;27;20041;-68
2023/05/02 11:40:56;;;;;;;2.83;0.80;;;10.50;51.10;;;;;;5130613;27;20264;-68
2023/05/02 11:43:26;;;;;;;3.63;0.95;;;10.70;35.90;;;;;;5131931;27;20035;-68
2023/05/02 11:45:53;;;;;;;2.47;0.95;;;10.70;28.80;;;;;;5130057;27;20498;-68
2023/05/02 11:48:21;;;;;;;2.95;0.68;;;10.40;7.30;;;;;;5130742;27;20429;-68
2023/05/02 11:50:51;;;;;;;2.60;0.75;;;10.10;1.30;;;;;;5130220;27;20102;-68
2023/05/02 11:53:21;;;;;;;1.38;0.50;;;10.20;36.50;;;;;;5130626;27;20046;-69
2023/05/02 11:56:07;;;;;;;1.90;0.50;;;10.20;1.00;;;;;;5113523;27;20046;-68
2023/05/02 11:58:33;;;;;;;2.08;0.50;;;10.20;1.00;;;;;;5130555;27;20045;-68
2023/05/02 12:01:14;;;;;;;1.77;0.52;;;10.40;1.00;;;;;;5130263;27;20039;-69
2023/05/02 12:03:39;;;;;;;0.80;0.40;;;11.00;1.00;;;;;;5129852;27;20452;-69
2023/05/02 12:06:14;;;;;;;2.13;0.60;;;11.60;1.00;;;;;;5130330;27;20031;-68
2023/05/02 12:08:42;;;;;;;1.58;0.40;;;12.00;1.00;;;;;;5130300;27;20067;-67
2023/05/02 12:11:08;;;;;;;1.75;0.40;;;12.00;99.90;;;;;;5130029;27;20085;-68
2023/05/02 12:13:34;;;;;;;0.85;0.50;;;12.40;99.90;;;;;;5130008;27;20042;-69
2023/05/02 12:16:01;;;;;;;2.50;0.40;;;12.50;99.90;;;;;;5129927;27;20126;-68
2023/05/02 12:18:27;;;;;;;1.70;0.50;;;12.30;99.90;;;;;;5130160;27;20057;-68
2023/05/02 12:20:53;;;;;;;;;;;11.90;99.90;;;;;;5130515;27;20058;-68
2023/05/02 12:23:21;;;;;;;2.37;0.40;;;12.00;99.90;;;;;;5129961;27;20405;-68
2023/05/02 12:25:48;;;;;;;0.88;0.30;;;11.80;99.90;;;;;;5112401;27;20078;-68
2023/05/02 12:28:15;;;;;;;2.30;0.50;;;11.60;99.90;;;;;;5129986;27;20471;-68
2023/05/02 12:30:41;;;;;;;0.68;0.30;;;11.60;99.90;;;;;;5129899;28;20096;-68
2023/05/02 12:33:07;;;;;;;1.70;0.52;;;11.60;99.90;;;;;;5130233;27;20432;-68
2023/05/02 12:35:34;;;;;;;1.92;0.47;;;11.70;99.90;;;;;;5129828;27;20126;-69
2023/05/02 12:38:12;;;;;;;1.98;0.50;;;11.30;99.90;;;;;;5132077;27;20385;-68
2023/05/02 12:40:39;;;;;;;1.33;0.45;;;11.20;99.90;;;;;;5134139;27;20043;-68
2023/05/02 12:43:07;;;;;;;1.52;0.30;;;11.80;99.90;;;;;;5134247;27;20135;-68
2023/05/02 12:45:33;;;;;;;2.40;0.57;;;11.90;99.90;;;;;;5135301;27;20050;-68
2023/05/02 12:48:18;;;;;;;2.10;0.50;;;12.50;99.90;;;;;;5134156;27;20316;-68
2023/05/02 12:50:45;;;;;;;1.30;0.40;;;12.70;99.90;;;;;;5134970;27;20406;-68
2023/05/02 12:53:11;;;;;;;1.08;0.30;;;12.40;99.90;;;;;;5133782;27;20055;-68
2023/05/02 12:55:36;;;;;;;1.77;0.50;;;13.00;99.90;;;;;;5133719;27;20039;-68
2023/05/02 12:58:05;;;;;;;6.40;0.70;;;13.50;99.90;;;;;;5099629;27;20049;-68
2023/05/02 13:00:31;;;;;;;1.75;0.43;;;13.40;99.90;;;;;;5133573;27;20491;-68
2023/05/02 13:02:57;;;;;;;1.98;0.60;;;13.60;99.90;;;;;;5133736;27;20390;-68
2023/05/02 13:05:23;;;;;;;3.28;0.90;;;13.50;99.90;;;;;;5133985;27;20043;-68